createdAt,value
2019-04-16T00:00:50.222Z,9.0
2019-04-16T00:02:52.247Z,8.7
2019-04-16T00:04:49.816Z,8.7
2019-04-16T00:06:49.997Z,8.7
2019-04-16T00:08:50.164Z,8.7
2019-04-16T00:10:50.181Z,9.4
2019-04-16T00:12:50.256Z,9.0
2019-04-16T00:14:50.304Z,9.0
2019-04-16T00:16:50.421Z,8.8
2019-04-16T00:19:01.013Z,8.7
2019-04-16T00:20:50.446Z,8.4
2019-04-16T00:22:49.580Z,8.6
2019-04-16T00:24:49.579Z,8.6
2019-04-16T00:26:49.813Z,8.5
2019-04-16T00:28:49.825Z,8.9
2019-04-16T00:30:49.947Z,8.5
2019-04-16T00:32:49.986Z,9.2
2019-04-16T00:34:50.341Z,9.2
2019-04-16T00:36:50.506Z,8.5
2019-04-16T00:38:54.695Z,8.9
2019-04-16T00:40:50.170Z,9.0
2019-04-16T00:42:50.170Z,9.0
2019-04-16T00:44:50.241Z,8.4
2019-04-16T00:46:50.410Z,8.6
2019-04-16T00:48:50.495Z,8.6
2019-04-16T00:50:50.403Z,8.6
2019-04-16T00:52:50.515Z,8.7
2019-04-16T00:54:49.554Z,8.7
2019-04-16T00:56:49.826Z,8.8
2019-04-16T00:58:53.067Z,9.0
2019-04-16T01:00:50.228Z,8.8
2019-04-16T01:02:50.244Z,8.8
2019-04-16T01:04:49.747Z,8.8
2019-04-16T01:06:49.983Z,9.2
2019-04-16T01:08:55.320Z,9.1
2019-04-16T01:10:50.470Z,8.8
2019-04-16T01:12:49.658Z,8.8
2019-04-16T01:14:49.623Z,8.8
2019-04-16T01:16:49.838Z,9.0
2019-04-16T01:18:50.113Z,8.7
2019-04-16T01:20:50.267Z,8.6
2019-04-16T01:22:50.466Z,8.6
2019-04-16T01:24:52.736Z,8.6
2019-04-16T01:26:50.171Z,8.9
2019-04-16T01:28:50.301Z,9.4
2019-04-16T01:30:50.392Z,9.4
2019-04-16T01:32:50.438Z,9.0
2019-04-16T01:34:50.520Z,8.9
2019-04-16T01:36:54.175Z,9.2
2019-04-16T01:38:50.001Z,9.2
2019-04-16T01:40:51.014Z,9.0
2019-04-16T01:42:55.278Z,8.9
2019-04-16T01:44:50.340Z,8.9
2019-04-16T01:46:49.608Z,8.9
2019-04-16T01:48:49.573Z,9.2
2019-04-16T01:50:49.598Z,9.2
2019-04-16T01:52:50.618Z,10.1
2019-04-16T01:54:54.755Z,9.0
2019-04-16T01:56:49.802Z,9.4
2019-04-16T01:58:49.867Z,9.3
2019-04-16T02:00:49.978Z,9.3
2019-04-16T02:02:50.056Z,9.2
2019-04-16T02:04:52.827Z,9.4
2019-04-16T02:06:50.036Z,8.6
2019-04-16T02:08:49.601Z,8.6
2019-04-16T02:10:49.587Z,9.3
2019-04-16T02:12:49.747Z,9.1
2019-04-16T02:14:51.204Z,8.9
2019-04-16T02:16:50.350Z,9.5
2019-04-16T02:18:50.471Z,9.6
2019-04-16T02:20:49.519Z,9.6
2019-04-16T02:22:49.554Z,9.4
2019-04-16T02:24:49.606Z,9.5
2019-04-16T02:26:55.490Z,9.2
2019-04-16T02:28:49.696Z,9.2
2019-04-16T02:30:49.726Z,10.3
2019-04-16T02:32:49.988Z,9.5
2019-04-16T02:34:50.519Z,9.1
2019-04-16T02:36:49.815Z,10.0
2019-04-16T02:38:53.719Z,10.0
2019-04-16T02:40:53.404Z,10.3
2019-04-16T02:42:50.485Z,10.3
2019-04-16T02:44:50.527Z,10.1
2019-04-16T02:46:49.902Z,9.6
2019-04-16T02:48:51.818Z,9.6
2019-04-16T02:50:49.971Z,9.8
2019-04-16T02:52:52.676Z,9.5
2019-04-16T02:54:49.731Z,9.4
2019-04-16T02:56:53.120Z,9.5
2019-04-16T02:58:50.251Z,9.5
2019-04-16T03:00:50.908Z,9.8
2019-04-16T03:02:54.534Z,10.1
2019-04-16T03:04:49.589Z,10.2
2019-04-16T03:06:49.800Z,9.6
2019-04-16T03:08:49.864Z,9.6
2019-04-16T03:10:50.008Z,10.1
2019-04-16T03:12:52.978Z,10.0
2019-04-16T03:14:50.116Z,9.7
2019-04-16T03:16:50.352Z,10.2
2019-04-16T03:18:50.471Z,10.2
2019-04-16T03:20:56.475Z,10.4
2019-04-16T03:22:49.804Z,10.0
2019-04-16T03:24:49.811Z,10.2
2019-04-16T03:26:51.243Z,10.2
2019-04-16T03:28:50.399Z,10.8
2019-04-16T03:30:50.417Z,10.6
2019-04-16T03:32:49.615Z,11.1
2019-04-16T03:34:53.414Z,10.6
2019-04-16T03:36:50.268Z,10.6
2019-04-16T03:38:50.349Z,11.0
2019-04-16T03:40:50.435Z,11.8
2019-04-16T03:42:49.768Z,11.1
2019-04-16T03:44:49.863Z,10.8
2019-04-16T03:46:49.975Z,10.8
2019-04-16T03:48:56.311Z,10.7
2019-04-16T03:50:50.441Z,11.0
2019-04-16T03:52:50.515Z,10.9
2019-04-16T03:54:54.689Z,10.9
2019-04-16T03:56:49.980Z,10.8
2019-04-16T03:58:50.090Z,11.1
2019-04-16T04:00:50.186Z,10.8
2019-04-16T04:02:55.331Z,10.8
2019-04-16T04:04:49.779Z,10.8
2019-04-16T04:06:49.905Z,11.2
2019-04-16T04:08:53.398Z,11.3
2019-04-16T04:10:50.410Z,10.6
2019-04-16T04:12:50.473Z,10.8
2019-04-16T04:14:55.006Z,10.8
2019-04-16T04:16:50.353Z,11.3
2019-04-16T04:18:50.447Z,10.9
2019-04-16T04:20:51.088Z,11.6
2019-04-16T04:22:50.099Z,11.6
2019-04-16T04:24:50.121Z,11.3
2019-04-16T04:26:49.703Z,11.5
2019-04-16T04:28:52.686Z,11.8
2019-04-16T04:30:49.742Z,11.9
2019-04-16T04:32:49.727Z,11.9
2019-04-16T04:34:50.304Z,11.1
2019-04-16T04:36:49.620Z,11.5
2019-04-16T04:38:49.806Z,11.7
2019-04-16T04:40:51.636Z,11.7
2019-04-16T04:42:49.751Z,12.5
2019-04-16T04:44:49.870Z,11.8
2019-04-16T04:46:50.066Z,12.1
2019-04-16T04:48:58.513Z,12.3
2019-04-16T04:50:50.345Z,12.3
2019-04-16T04:52:50.345Z,12.3
2019-04-16T04:54:54.206Z,12.2
2019-04-16T04:56:50.041Z,11.5
2019-04-16T04:58:50.093Z,11.9
2019-04-16T05:00:50.120Z,13.2
2019-04-16T05:02:50.280Z,13.2
2019-04-16T05:04:53.215Z,12.5
2019-04-16T05:06:50.452Z,12.7
2019-04-16T05:08:49.516Z,12.5
2019-04-16T05:11:01.185Z,12.3
2019-04-16T05:12:53.785Z,12.3
2019-04-16T05:14:49.895Z,12.6
2019-04-16T05:16:50.182Z,13.4
2019-04-16T05:18:50.265Z,13.4
2019-04-16T05:20:50.373Z,13.3
2019-04-16T05:22:54.440Z,13.3
2019-04-16T05:24:50.123Z,13.1
2019-04-16T05:26:50.374Z,13.2
2019-04-16T05:28:50.459Z,13.1
2019-04-16T05:30:53.155Z,12.9
2019-04-16T05:32:50.273Z,12.9
2019-04-16T05:34:49.728Z,14.4
2019-04-16T05:36:50.277Z,14.6
2019-04-16T05:38:50.393Z,13.5
2019-04-16T05:40:50.345Z,13.5
2019-04-16T05:42:52.864Z,13.5
2019-04-16T05:44:49.584Z,12.8
2019-04-16T05:46:49.809Z,14.2
2019-04-16T05:48:54.576Z,12.5
2019-04-16T05:50:49.736Z,12.5
2019-04-16T05:52:49.879Z,12.3
2019-04-16T05:54:49.920Z,11.8
2019-04-16T05:56:55.443Z,12.0
2019-04-16T05:58:49.644Z,11.5
2019-04-16T06:00:49.715Z,11.5
2019-04-16T06:02:50.877Z,10.7
2019-04-16T06:04:50.273Z,11.0
2019-04-16T06:06:49.656Z,10.6
2019-04-16T06:08:49.760Z,11.3
2019-04-16T06:10:51.300Z,11.3
2019-04-16T06:12:50.413Z,11.2
2019-04-16T06:14:54.118Z,9.9
2019-04-16T06:16:50.323Z,10.7
2019-04-16T06:18:50.416Z,10.7
2019-04-16T06:20:53.847Z,9.8
2019-04-16T06:22:49.909Z,10.6
2019-04-16T06:24:50.098Z,10.6
2019-04-16T06:26:50.350Z,10.6
2019-04-16T06:28:57.144Z,10.0
2019-04-16T06:30:50.289Z,10.0
2019-04-16T06:32:50.352Z,10.0
2019-04-16T06:34:49.684Z,10.3
2019-04-16T06:36:50.131Z,10.2
2019-04-16T06:38:50.113Z,9.5
2019-04-16T06:40:50.230Z,9.5
2019-04-16T06:42:54.780Z,10.3
2019-04-16T06:44:49.797Z,9.7
2019-04-16T06:46:49.969Z,10.5
2019-04-16T06:48:50.039Z,10.5
2019-04-16T06:50:50.108Z,10.3
2019-04-16T06:52:50.278Z,10.4
2019-04-16T06:54:50.391Z,11.6
2019-04-16T06:56:50.612Z,10.2
2019-04-16T06:58:54.633Z,10.2
2019-04-16T07:00:50.114Z,10.7
2019-04-16T07:03:02.373Z,10.7
2019-04-16T07:04:49.879Z,10.4
2019-04-16T07:06:50.209Z,10.1
2019-04-16T07:08:50.921Z,10.1
2019-04-16T07:10:50.073Z,10.9
2019-04-16T07:12:50.299Z,10.8
2019-04-16T07:14:49.891Z,10.3
2019-04-16T07:16:50.076Z,10.3
2019-04-16T07:18:50.147Z,10.0
2019-04-16T07:20:50.197Z,10.6
2019-04-16T07:22:53.633Z,10.1
2019-04-16T07:24:49.798Z,10.4
2019-04-16T07:26:50.187Z,10.4
2019-04-16T07:28:50.523Z,10.7
2019-04-16T07:30:50.033Z,10.6
2019-04-16T07:32:50.216Z,10.0
2019-04-16T07:34:49.619Z,11.0
2019-04-16T07:36:49.910Z,11.0
2019-04-16T07:38:50.035Z,10.3
2019-04-16T07:40:50.170Z,10.5
2019-04-16T07:42:53.006Z,10.4
2019-04-16T07:44:50.306Z,10.3
2019-04-16T07:46:49.605Z,10.3
2019-04-16T07:48:54.226Z,10.3
2019-04-16T07:50:53.156Z,10.3
2019-04-16T07:52:50.306Z,10.7
2019-04-16T07:54:49.626Z,10.2
2019-04-16T07:56:49.813Z,10.2
2019-04-16T07:58:49.779Z,9.6
2019-04-16T08:00:49.948Z,10.9
2019-04-16T08:02:54.473Z,10.2
2019-04-16T08:04:50.206Z,10.2
2019-04-16T08:06:50.375Z,10.4
2019-04-16T08:08:50.373Z,10.0
2019-04-16T08:10:50.403Z,10.2
2019-04-16T08:12:50.450Z,10.2
2019-04-16T08:14:50.441Z,10.3
2019-04-16T08:16:49.624Z,10.0
2019-04-16T08:18:49.583Z,10.3
2019-04-16T08:21:02.431Z,10.3
2019-04-16T08:22:50.277Z,10.3
2019-04-16T08:24:50.246Z,10.3
2019-04-16T08:26:50.487Z,10.5
2019-04-16T08:28:49.592Z,10.5
2019-04-16T08:30:49.580Z,10.5
2019-04-16T08:32:49.883Z,10.3
2019-04-16T08:34:50.309Z,10.3
2019-04-16T08:36:49.553Z,10.4
2019-04-16T08:38:49.562Z,10.9
2019-04-16T08:40:49.661Z,11.5
2019-04-16T08:42:49.773Z,11.5
2019-04-16T08:44:49.781Z,10.5
2019-04-16T08:46:49.954Z,10.0
2019-04-16T08:48:54.459Z,10.1
2019-04-16T08:50:49.678Z,10.5
2019-04-16T08:52:49.719Z,10.3
2019-04-16T08:54:53.217Z,10.3
2019-04-16T08:56:50.215Z,9.9
2019-04-16T08:58:50.209Z,10.4
2019-04-16T09:00:50.445Z,10.2
2019-04-16T09:02:50.442Z,10.8
2019-04-16T09:04:50.168Z,10.8
2019-04-16T09:06:50.315Z,10.0
2019-04-16T09:08:53.811Z,10.9
2019-04-16T09:10:50.385Z,10.0
2019-04-16T09:13:03.646Z,10.0
2019-04-16T09:14:56.223Z,11.4
2019-04-16T09:16:49.787Z,10.8
2019-04-16T09:18:49.794Z,10.8
2019-04-16T09:20:50.222Z,9.9
2019-04-16T09:22:54.695Z,10.4
2019-04-16T09:24:50.163Z,11.1
2019-04-16T09:26:55.766Z,10.3
2019-04-16T09:28:49.944Z,10.6
2019-04-16T09:30:50.777Z,10.3
2019-04-16T09:32:49.849Z,10.3
2019-04-16T09:34:50.161Z,10.2
2019-04-16T09:36:50.407Z,10.7
2019-04-16T09:38:50.433Z,9.9
2019-04-16T09:40:49.939Z,9.9
2019-04-16T09:42:49.742Z,10.9
2019-04-16T09:44:49.774Z,10.7
2019-04-16T09:46:52.372Z,10.2
2019-04-16T09:48:50.379Z,10.8
2019-04-16T09:50:50.458Z,10.8
2019-04-16T09:52:49.612Z,10.9
2019-04-16T09:54:50.357Z,10.9
2019-04-16T09:56:49.610Z,11.2
2019-04-16T09:58:49.574Z,11.2
2019-04-16T10:00:49.675Z,10.3
2019-04-16T10:02:49.824Z,10.7
2019-04-16T10:04:50.231Z,11.0
2019-04-16T10:06:50.391Z,11.1
2019-04-16T10:08:49.573Z,11.2
2019-04-16T10:10:49.621Z,11.2
2019-04-16T10:12:49.863Z,10.4
2019-04-16T10:14:49.921Z,10.8
2019-04-16T10:16:50.164Z,10.8
2019-04-16T10:18:50.234Z,10.9
2019-04-16T10:20:50.310Z,10.9
2019-04-16T10:22:50.469Z,10.7
2019-04-16T10:24:50.564Z,10.8
2019-04-16T10:26:50.327Z,10.6
2019-04-16T10:28:50.365Z,10.6
2019-04-16T10:30:50.534Z,10.6
2019-04-16T10:32:49.669Z,11.0
2019-04-16T10:34:50.183Z,10.0
2019-04-16T10:36:50.462Z,10.5
2019-04-16T10:38:49.589Z,11.3
2019-04-16T10:40:49.695Z,11.3
2019-04-16T10:42:49.725Z,10.6
2019-04-16T10:44:49.830Z,11.2
2019-04-16T10:46:50.482Z,11.5
2019-04-16T10:48:49.622Z,11.5
2019-04-16T10:50:49.715Z,10.3
2019-04-16T10:52:56.098Z,11.0
2019-04-16T10:54:49.921Z,10.6
2019-04-16T10:56:50.109Z,11.1
2019-04-16T10:58:50.199Z,11.1
2019-04-16T11:00:49.804Z,10.8
2019-04-16T11:02:49.987Z,10.6
2019-04-16T11:04:50.410Z,10.6
2019-04-16T11:06:50.447Z,10.5
2019-04-16T11:08:49.681Z,10.5
2019-04-16T11:10:49.815Z,10.6
2019-04-16T11:12:49.955Z,11.1
2019-04-16T11:14:50.117Z,10.4
2019-04-16T11:16:50.371Z,10.9
2019-04-16T11:18:50.544Z,10.9
2019-04-16T11:20:49.666Z,10.9
2019-04-16T11:22:49.784Z,10.9
2019-04-16T11:24:49.919Z,11.4
2019-04-16T11:26:50.230Z,11.1
2019-04-16T11:28:50.255Z,11.1
2019-04-16T11:30:50.314Z,10.7
2019-04-16T11:32:53.581Z,10.5
2019-04-16T11:34:50.240Z,10.4
2019-04-16T11:36:50.452Z,10.9
2019-04-16T11:38:49.606Z,10.9
2019-04-16T11:40:49.731Z,11.2
2019-04-16T11:42:50.055Z,10.2
2019-04-16T11:44:50.734Z,10.5
2019-04-16T11:46:50.122Z,10.5
2019-04-16T11:48:50.689Z,10.3
2019-04-16T11:50:49.825Z,10.3
2019-04-16T11:52:49.932Z,10.7
2019-04-16T11:54:50.343Z,10.0
2019-04-16T11:56:49.579Z,10.0
2019-04-16T11:58:50.086Z,9.2
2019-04-16T12:00:50.429Z,11.0
2019-04-16T12:02:49.971Z,10.5
2019-04-16T12:04:49.549Z,10.8
2019-04-16T12:06:49.912Z,10.8
2019-04-16T12:08:50.243Z,10.3
2019-04-16T12:10:50.513Z,10.9
2019-04-16T12:12:49.875Z,10.0
2019-04-16T12:14:50.161Z,10.4
2019-04-16T12:16:50.617Z,10.4
2019-04-16T12:18:49.768Z,10.4
2019-04-16T12:20:50.034Z,9.7
2019-04-16T12:22:49.581Z,9.7
2019-04-16T12:24:49.954Z,11.1
2019-04-16T12:26:50.296Z,9.0
2019-04-16T12:28:49.689Z,9.3
2019-04-16T12:30:50.215Z,9.0
2019-04-16T12:32:50.456Z,9.3
2019-04-16T12:34:51.605Z,9.3
2019-04-16T12:36:50.127Z,9.4
2019-04-16T12:38:50.394Z,9.3
2019-04-16T12:40:50.101Z,9.3
2019-04-16T12:42:50.506Z,8.9
2019-04-16T12:44:50.021Z,8.9
2019-04-16T12:46:50.516Z,8.7
2019-04-16T12:48:49.904Z,8.5
2019-04-16T12:50:50.229Z,8.6
2019-04-16T12:52:55.499Z,9.2
2019-04-16T12:54:50.286Z,9.2
2019-04-16T12:56:50.191Z,9.2
2019-04-16T12:58:51.407Z,9.4
2019-04-16T13:00:49.672Z,9.5
2019-04-16T13:02:49.515Z,9.5
2019-04-16T13:04:50.179Z,9.8
2019-04-16T13:06:49.997Z,8.9
2019-04-16T13:08:53.746Z,8.5
2019-04-16T13:10:50.023Z,9.1
2019-04-16T13:12:49.570Z,9.1
2019-04-16T13:15:00.713Z,9.4
2019-04-16T13:16:50.437Z,9.9
2019-04-16T13:18:49.622Z,10.1
2019-04-16T13:20:49.815Z,10.1
2019-04-16T13:22:49.622Z,9.3
2019-04-16T13:24:49.960Z,9.8
2019-04-16T13:26:50.444Z,9.1
2019-04-16T13:28:49.704Z,9.9
2019-04-16T13:30:50.219Z,9.2
2019-04-16T13:32:50.492Z,9.2
2019-04-16T13:34:50.461Z,9.7
2019-04-16T13:36:52.254Z,9.6
2019-04-16T13:38:49.570Z,9.6
2019-04-16T13:40:54.010Z,9.6
2019-04-16T13:42:50.399Z,9.8
2019-04-16T13:44:49.745Z,9.6
2019-04-16T13:46:50.280Z,9.9
2019-04-16T13:48:49.616Z,9.9
2019-04-16T13:50:49.763Z,9.9
2019-04-16T13:52:55.895Z,9.2
2019-04-16T13:54:50.196Z,9.9
2019-04-16T13:56:51.820Z,10.0
2019-04-16T13:58:50.029Z,10.4
2019-04-16T14:00:50.222Z,10.4
2019-04-16T14:02:52.093Z,9.7
2019-04-16T14:04:49.647Z,9.2
2019-04-16T14:06:50.116Z,10.0
2019-04-16T14:08:50.290Z,10.0
2019-04-16T14:10:50.473Z,9.9
2019-04-16T14:12:49.633Z,9.3
2019-04-16T14:14:50.354Z,9.7
2019-04-16T14:16:49.713Z,9.8
2019-04-16T14:18:49.949Z,9.7
2019-04-16T14:20:50.197Z,9.7
2019-04-16T14:22:54.245Z,9.9
2019-04-16T14:24:50.472Z,9.8
2019-04-16T14:26:49.748Z,9.8
2019-04-16T14:28:52.663Z,9.8
2019-04-16T14:30:49.557Z,9.8
2019-04-16T14:32:49.920Z,10.0
2019-04-16T14:34:50.440Z,12.7
2019-04-16T14:36:49.573Z,9.7
2019-04-16T14:38:49.640Z,9.7
2019-04-16T14:40:49.925Z,10.2
2019-04-16T14:42:57.639Z,9.7
2019-04-16T14:44:49.747Z,9.3
2019-04-16T14:46:50.068Z,9.3
2019-04-16T14:48:50.238Z,9.3
2019-04-16T14:50:50.530Z,8.9
2019-04-16T14:52:49.806Z,8.9
2019-04-16T14:54:50.199Z,9.8
2019-04-16T14:56:49.816Z,9.8
2019-04-16T14:58:50.331Z,9.2
2019-04-16T15:00:50.232Z,9.5
2019-04-16T15:02:50.118Z,9.6
2019-04-16T15:04:49.639Z,9.4
2019-04-16T15:06:53.673Z,9.9
2019-04-16T15:08:49.878Z,9.9
2019-04-16T15:10:50.080Z,10.0
2019-04-16T15:12:50.322Z,9.5
2019-04-16T15:14:49.955Z,9.3
2019-04-16T15:16:51.227Z,10.3
2019-04-16T15:18:49.529Z,10.3
2019-04-16T15:20:49.702Z,9.5
2019-04-16T15:22:49.959Z,9.4
2019-04-16T15:24:49.798Z,9.1
2019-04-16T15:26:53.556Z,9.1
2019-04-16T15:28:49.723Z,9.1
2019-04-16T15:30:49.948Z,8.8
2019-04-16T15:32:49.787Z,8.4
2019-04-16T15:34:50.355Z,8.7
2019-04-16T15:36:55.048Z,8.7
2019-04-16T15:38:50.391Z,8.9
2019-04-16T15:40:50.290Z,9.1
2019-04-16T15:42:49.575Z,9.2
2019-04-16T15:44:56.864Z,9.2
2019-04-16T15:46:50.198Z,8.5
2019-04-16T15:48:51.294Z,9.1
2019-04-16T15:50:49.549Z,9.4
2019-04-16T15:52:49.844Z,9.2
2019-04-16T15:54:50.063Z,9.1
2019-04-16T15:56:50.481Z,9.3
2019-04-16T15:58:50.221Z,9.3
2019-04-16T16:00:50.480Z,8.9
2019-04-16T16:02:49.645Z,8.9
2019-04-16T16:04:49.835Z,8.9
2019-04-16T16:06:53.266Z,8.9
2019-04-16T16:08:50.482Z,8.5
2019-04-16T16:10:49.799Z,8.8
2019-04-16T16:12:53.582Z,8.7
2019-04-16T16:14:49.720Z,8.7
2019-04-16T16:16:51.581Z,8.7
2019-04-16T16:18:49.847Z,8.1
2019-04-16T16:20:50.179Z,8.8
2019-04-16T16:22:50.469Z,8.3
2019-04-16T16:24:49.662Z,8.3
2019-04-16T16:26:50.072Z,8.7
2019-04-16T16:28:50.208Z,8.1
2019-04-16T16:30:50.348Z,8.7
2019-04-16T16:32:49.641Z,8.5
2019-04-16T16:34:50.140Z,8.5
2019-04-16T16:36:50.276Z,8.5
2019-04-16T16:38:50.378Z,8.5
2019-04-16T16:40:50.685Z,8.3
2019-04-16T16:42:49.754Z,8.0
2019-04-16T16:44:49.881Z,8.0
2019-04-16T16:46:58.514Z,8.9
2019-04-16T16:48:49.940Z,7.8
2019-04-16T16:50:51.986Z,7.8
2019-04-16T16:52:50.470Z,7.8
2019-04-16T16:54:50.468Z,8.1
2019-04-16T16:56:49.711Z,8.0
2019-04-16T16:58:49.732Z,8.7
2019-04-16T17:00:49.863Z,8.6
2019-04-16T17:02:49.954Z,8.8
2019-04-16T17:04:50.273Z,8.8
2019-04-16T17:06:50.328Z,8.9
2019-04-16T17:08:50.424Z,8.7
2019-04-16T17:10:49.537Z,8.7
2019-04-16T17:12:49.677Z,8.0
2019-04-16T17:14:49.710Z,8.0
2019-04-16T17:16:49.980Z,8.3
2019-04-16T17:18:50.024Z,8.0
2019-04-16T17:20:50.613Z,8.7
2019-04-16T17:22:49.588Z,8.7
2019-04-16T17:24:49.605Z,8.7
2019-04-16T17:26:50.895Z,7.5
2019-04-16T17:28:49.998Z,8.5
2019-04-16T17:30:50.050Z,7.9
2019-04-16T17:32:50.169Z,7.9
2019-04-16T17:34:49.546Z,8.4
2019-04-16T17:36:49.762Z,8.0
2019-04-16T17:38:49.709Z,7.8
2019-04-16T17:40:57.559Z,7.3
2019-04-16T17:42:50.208Z,7.3
2019-04-16T17:44:50.316Z,8.0
2019-04-16T17:46:50.961Z,7.7
2019-04-16T17:48:49.970Z,7.7
2019-04-16T17:50:51.590Z,7.5
2019-04-16T17:52:49.706Z,7.5
2019-04-16T17:54:50.267Z,7.5
2019-04-16T17:56:54.889Z,7.2
2019-04-16T17:58:49.689Z,7.3
2019-04-16T18:00:49.783Z,7.3
2019-04-16T18:02:49.763Z,7.3
2019-04-16T18:04:50.164Z,6.6
2019-04-16T18:06:50.334Z,8.2
2019-04-16T18:08:49.589Z,7.0
2019-04-16T18:10:50.502Z,6.8
2019-04-16T18:12:54.337Z,6.8
2019-04-16T18:14:50.210Z,7.2
2019-04-16T18:16:55.302Z,6.9
2019-04-16T18:18:50.171Z,6.9
2019-04-16T18:20:59.325Z,6.7
2019-04-16T18:22:49.898Z,6.8
2019-04-16T18:24:49.966Z,6.3
2019-04-16T18:26:49.886Z,7.1
2019-04-16T18:28:49.982Z,7.1
2019-04-16T18:30:50.485Z,7.0
2019-04-16T18:32:49.597Z,6.9
2019-04-16T18:34:50.102Z,7.0
2019-04-16T18:36:50.509Z,6.5
2019-04-16T18:38:49.579Z,6.8
2019-04-16T18:40:49.708Z,6.8
2019-04-16T18:42:49.909Z,6.5
2019-04-16T18:44:54.478Z,6.5
2019-04-16T18:46:49.951Z,6.5
2019-04-16T18:48:49.962Z,6.6
2019-04-16T18:50:49.995Z,6.6
2019-04-16T18:52:50.048Z,6.6
2019-04-16T18:54:50.164Z,6.3
2019-04-16T18:56:50.357Z,6.3
2019-04-16T18:58:50.445Z,6.3
2019-04-16T19:00:50.427Z,6.3
2019-04-16T19:02:50.511Z,6.3
2019-04-16T19:04:51.225Z,6.5
2019-04-16T19:06:50.384Z,6.5
2019-04-16T19:08:50.441Z,6.6
2019-04-16T19:10:49.534Z,6.4
2019-04-16T19:12:49.812Z,6.1
2019-04-16T19:14:50.053Z,6.3
2019-04-16T19:16:50.286Z,6.7
2019-04-16T19:18:50.334Z,6.7
2019-04-16T19:20:52.726Z,6.5
2019-04-16T19:22:50.812Z,7.1
2019-04-16T19:24:49.827Z,7.1
2019-04-16T19:26:50.141Z,6.3
2019-04-16T19:28:50.260Z,6.9
2019-04-16T19:30:50.304Z,6.9
2019-04-16T19:32:50.309Z,6.4
2019-04-16T19:34:49.737Z,6.2
2019-04-16T19:36:49.890Z,6.2
2019-04-16T19:38:49.921Z,6.6
2019-04-16T19:40:51.776Z,6.2
2019-04-16T19:42:49.840Z,7.1
2019-04-16T19:44:49.963Z,7.1
2019-04-16T19:46:54.272Z,6.6
2019-04-16T19:48:49.786Z,6.7
2019-04-16T19:50:49.767Z,6.8
2019-04-16T19:52:49.846Z,6.3
2019-04-16T19:54:49.872Z,6.3
2019-04-16T19:56:52.145Z,6.5
2019-04-16T19:58:50.163Z,6.5
2019-04-16T20:00:50.214Z,6.7
2019-04-16T20:02:50.257Z,6.7
2019-04-16T20:04:51.081Z,6.3
2019-04-16T20:06:50.239Z,6.3
2019-04-16T20:08:50.325Z,6.6
2019-04-16T20:10:50.386Z,6.8
2019-04-16T20:12:50.392Z,7.0
2019-04-16T20:14:50.508Z,7.0
2019-04-16T20:16:49.633Z,6.8
2019-04-16T20:18:51.660Z,7.0
2019-04-16T20:20:50.937Z,6.9
2019-04-16T20:22:50.033Z,6.9
2019-04-16T20:24:50.004Z,6.9
2019-04-16T20:26:50.316Z,6.8
2019-04-16T20:28:50.431Z,7.0
2019-04-16T20:31:02.113Z,7.1
2019-04-16T20:32:50.445Z,7.1
2019-04-16T20:34:49.779Z,7.3
2019-04-16T20:36:56.627Z,6.6
2019-04-16T20:38:50.281Z,6.9
2019-04-16T20:40:50.278Z,6.7
2019-04-16T20:42:50.387Z,6.7
2019-04-16T20:44:50.392Z,6.9
2019-04-16T20:46:49.654Z,6.9
2019-04-16T20:48:49.622Z,7.0
2019-04-16T20:50:55.255Z,7.3
2019-04-16T20:52:50.158Z,6.9
2019-04-16T20:54:50.206Z,6.9
2019-04-16T20:56:54.062Z,6.9
2019-04-16T20:58:49.889Z,6.8
2019-04-16T21:00:49.988Z,7.1
2019-04-16T21:02:51.877Z,6.7
2019-04-16T21:04:50.244Z,6.7
2019-04-16T21:06:49.655Z,7.1
2019-04-16T21:08:49.691Z,6.9
2019-04-16T21:10:49.791Z,7.1
2019-04-16T21:12:49.869Z,7.0
2019-04-16T21:14:53.948Z,7.0
2019-04-16T21:16:49.614Z,7.3
2019-04-16T21:18:49.666Z,7.4
2019-04-16T21:20:51.792Z,7.4
2019-04-16T21:22:49.828Z,7.1
2019-04-16T21:24:49.901Z,7.1
2019-04-16T21:26:51.941Z,6.7
2019-04-16T21:28:50.002Z,7.3
2019-04-16T21:30:50.160Z,7.3
2019-04-16T21:32:50.116Z,6.8
2019-04-16T21:34:49.549Z,7.4
2019-04-16T21:36:49.804Z,7.0
2019-04-16T21:38:49.916Z,7.6
2019-04-16T21:40:55.860Z,7.2
2019-04-16T21:42:49.783Z,7.7
2019-04-16T21:44:49.790Z,7.7
2019-04-16T21:46:53.403Z,7.5
2019-04-16T21:48:50.158Z,7.5
2019-04-16T21:50:52.354Z,7.8
2019-04-16T21:52:56.334Z,7.8
2019-04-16T21:54:50.069Z,7.3
2019-04-16T21:56:50.268Z,7.4
2019-04-16T21:58:50.503Z,7.4
2019-04-16T22:00:49.695Z,7.2
2019-04-16T22:02:49.996Z,7.2
2019-04-16T22:04:49.576Z,7.0
2019-04-16T22:06:53.391Z,7.3
2019-04-16T22:08:49.560Z,7.2
2019-04-16T22:10:49.560Z,7.2
2019-04-16T22:12:49.636Z,7.2
2019-04-16T22:14:54.002Z,7.1
2019-04-16T22:16:50.010Z,7.4
2019-04-16T22:18:50.053Z,7.4
2019-04-16T22:20:50.215Z,7.8
2019-04-16T22:22:50.349Z,7.8
2019-04-16T22:24:54.805Z,7.4
2019-04-16T22:26:50.375Z,7.4
2019-04-16T22:28:50.407Z,7.2
2019-04-16T22:30:52.351Z,7.7
2019-04-16T22:32:50.462Z,7.7
2019-04-16T22:34:49.903Z,7.3
2019-04-16T22:36:50.113Z,7.5
2019-04-16T22:38:50.302Z,7.7
2019-04-16T22:40:55.626Z,7.7
2019-04-16T22:42:49.582Z,7.6
2019-04-16T22:44:49.573Z,7.6
2019-04-16T22:46:50.094Z,7.3
2019-04-16T22:48:50.679Z,7.0
2019-04-16T22:50:49.718Z,7.3
2019-04-16T22:52:49.915Z,7.8
2019-04-16T22:54:53.261Z,6.8
2019-04-16T22:56:49.531Z,7.4
2019-04-16T22:58:50.499Z,7.4
2019-04-16T23:00:49.655Z,7.3
2019-04-16T23:02:49.675Z,7.6
2019-04-16T23:04:50.165Z,7.2
2019-04-16T23:06:50.498Z,7.5
2019-04-16T23:08:50.447Z,7.5
2019-04-16T23:10:52.208Z,7.7
2019-04-16T23:12:50.416Z,7.3
2019-04-16T23:14:50.433Z,7.5
2019-04-16T23:16:49.559Z,7.5
2019-04-16T23:18:50.193Z,8.0
2019-04-16T23:20:50.147Z,7.6
2019-04-16T23:22:50.200Z,7.5
2019-04-16T23:24:56.249Z,7.3
2019-04-16T23:26:49.646Z,7.6
2019-04-16T23:28:49.688Z,7.6
2019-04-16T23:30:51.967Z,7.0
2019-04-16T23:32:49.968Z,7.3
2019-04-16T23:34:50.491Z,7.4
2019-04-16T23:36:49.735Z,7.5
2019-04-16T23:38:49.804Z,7.5
2019-04-16T23:40:49.825Z,7.6
2019-04-16T23:42:51.063Z,7.3
2019-04-16T23:44:50.101Z,7.6
2019-04-16T23:46:50.309Z,7.7
2019-04-16T23:48:50.307Z,7.7
2019-04-16T23:50:50.410Z,7.4
2019-04-16T23:52:49.549Z,7.6
2019-04-16T23:54:49.663Z,7.6
2019-04-16T23:56:53.854Z,7.6
2019-04-16T23:58:50.040Z,7.6
